^^

Metar de toute la France(point de départ, Chateauroux, classé dans l'ordre alphabétique actualisée toutes les 30 minutes)






LFBA - Agen/, France
Distance de la station: SSO 307km
Mise à jour: 19/04/2014 13:30
partiellement nuageux
partiellement nuageux
 Wind from ONO
Vent: ONO 11 km/h
Température: 16°C
Point de Rosée: 2°C
Humidité: 39%
Baromètre: 1009 hPa
Nuages: partiellement nuageux
Visibilité: 10 km
2014/04/19 11:30 LFBA 191130Z AUTO 29006KT 240V340 9999 NSC 16/02 Q1009
LFLP - Annecy/, France
Distance de la station: ESE 352km
Mise à jour: 19/04/2014 13:30
nuageux
nuageux
 Wind from NNE
Vent: NNE 15 km/h
Température: 9°C
Wind Chill: 7°C
Point de Rosée: 0°C
Humidité: 54%
Baromètre: 1007 hPa
Nuages: nuageux
Visibilité: 10 km
Nuages details: partiellement nuageux 1158 m
partiellement nuageux 1494 m
nuageux 4267 m
2014/04/19 11:30 LFLP 191130Z AUTO 03008KT 360V070 9999 SCT038 SCT049 BKN140 09/00 Q1007
 
LFOA - Avord/ , France
Distance de la station: ENE 76km
Mise à jour: 19/04/2014 13:30
partiellement nuageux
partiellement nuageux
 Wind from ENE
Vent: ENE 19 km/h
Température: 14°C
Point de Rosée: -1°C
Humidité: 36%
Baromètre: 1010 hPa
Nuages: partiellement nuageux
Visibilité: 10 km
2014/04/19 11:30 LFOA 191130Z AUTO 06010KT 030V100 9999 NSC 14/M01 Q1010
LFSB - Bale/, France
Distance de la station: ENE 449km
Mise à jour: 19/04/2014 13:30
nuageux
nuageux
 Wind from N
Vent: N 15 km/h
Température: 7°C
Wind Chill: 4°C
Point de Rosée: 5°C
Humidité: 87%
Baromètre: 1010 hPa
Nuages: nuageux
Visibilité: 10 km
Nuages details: partiellement nuageux 335 m
partiellement nuageux 457 m
nuageux 1006 m
2014/04/19 11:30 LFSB 191130Z 36008KT 330V030 9999 SCT011 SCT015 BKN033 07/05 Q1010 NOSIG
 
LFOB - Beauvais/, France
Distance de la station: N 296km
Mise à jour: 19/04/2014 13:30
Quelques Nuages
Quelques Nuages
 Wind from NE
Vent: NE 17 km/h
Température: 12°C
Point de Rosée: 2°C
Humidité: 51%
Baromètre: 1015 hPa
Nuages: Quelques Nuages
Visibilité: 10 km
Nuages details: Quelques Nuages 1219 m
2014/04/19 11:30 LFOB 191130Z AUTO 05009KT 020V080 9999 FEW040 12/02 Q1015
LFBE - Bergerac/, France
Distance de la station: SSO 240km
Mise à jour: 19/04/2014 13:30
partiellement nuageux
partiellement nuageux
 Wind from NNO
Vent: NNO 9 km/h
Température: 16°C
Point de Rosée: 4°C
Humidité: 45%
Baromètre: 1009 hPa
Nuages: partiellement nuageux
Visibilité: 10 km
2014/04/19 11:30 LFBE 191130Z AUTO 33005KT 240V020 9999 NSC 16/04 Q1009
 
LFMU - Beziers/, France
Distance de la station: SSE 411km
Mise à jour: 19/04/2014 13:30
partiellement nuageux
partiellement nuageux
 Wind from NO
Vent: NO 22 km/h
Température: 18°C
Point de Rosée: -4°C
Humidité: 22%
Baromètre: 1006 hPa
Nuages: partiellement nuageux
Visibilité: 10 km
2014/04/19 11:30 LFMU 191130Z AUTO 32012KT 280V360 9999 NSC 18/M04 Q1006
LFBZ - Biarritz/, France
Distance de la station: SO 449km
Mise à jour: 19/04/2014 13:30
nuageux
nuageux
 Wind from O
Vent: O 20 km/h
Température: 15°C
Point de Rosée: 12°C
Humidité: 82%
Baromètre: 1009 hPa
Nuages: nuageux
Visibilité: 10 km
Nuages details: nuageux 366 m
nuageux 1524 m
2014/04/19 11:30 LFBZ 191130Z 28011KT 240V310 9999 BKN012 BKN050 15/12 Q1009 NOSIG
 
LFBD - Bordeaux/, France
Distance de la station: SO 289km
Mise à jour: 19/04/2014 13:30
partiellement nuageux
partiellement nuageux
 Wind from NNE
Vent: NNE 15 km/h
Température: 16°C
Point de Rosée: 1°C
Humidité: 36%
Baromètre: 1009 hPa
Nuages: partiellement nuageux
Visibilité: 10 km
2014/04/19 11:30 LFBD 191130Z AUTO 03008KT 340V080 9999 NSC 16/01 Q1009
LFAQ - Bray/, France
Distance de la station: N 358km
Mise à jour: 19/04/2014 13:30
partiellement nuageux
partiellement nuageux
 Wind from NE
Vent: NE 19 km/h
Température: 11°C
Point de Rosée: 2°C
Humidité: 54%
Baromètre: 1015 hPa
Nuages: partiellement nuageux
Visibilité: 10 km
Nuages details: partiellement nuageux 1280 m
partiellement nuageux 1463 m
2014/04/19 11:30 LFAQ 191130Z AUTO 05010KT 020V080 9999 SCT042 SCT048 11/02 Q1015
 
LFRB - Brest/, France
Distance de la station: ONO 492km
Mise à jour: 19/04/2014 13:30
partiellement nuageux
partiellement nuageux
 Wind from E
Vent: E 22 km/h
Température: 11°C
Point de Rosée: 3°C
Humidité: 58%
Baromètre: 1014 hPa
Nuages: partiellement nuageux
Visibilité: 10 km
Nuages details: Quelques Nuages 1097 m
partiellement nuageux 1524 m
2014/04/19 11:30 LFRB 191130Z 08012KT 9999 FEW036 SCT050 11/03 Q1014 NOSIG
LFRK - Caen/, France
Distance de la station: NNO 306km
Mise à jour: 19/04/2014 13:30
Couvert
Couvert
 Wind from ENE
Vent: ENE 19 km/h
Température: 10°C
Wind Chill: 7°C
Point de Rosée: 1°C
Humidité: 54%
Baromètre: 1015 hPa
Nuages: Couvert
Visibilité: 10 km
Nuages details: Quelques Nuages 1341 m
partiellement nuageux 1585 m
Couvert 1890 m
2014/04/19 11:30 LFRK 191130Z AUTO 06010KT 010V130 9999 FEW044 SCT052 OVC062 10/01 Q1015
 
LFMK - Carcassonne/, France
Distance de la station: S 403km
Mise à jour: 19/04/2014 13:30
nuageux
nuageux
 Wind from ONO
Vent: ONO 30 km/h
Température: 17°C
Point de Rosée: 2°C
Humidité: 37%
Baromètre: 1007 hPa
Nuages: nuageux
Visibilité: 10 km
Nuages details: nuageux 1829 m
2014/04/19 11:30 LFMK 191130Z AUTO 30016KT 260V320 9999 BKN060 17/02 Q1007
LFMV - Caumont/, France
Distance de la station: SE 410km
Mise à jour: 19/04/2014 13:30
partiellement nuageux
partiellement nuageux
 Wind from N
Vent: N 37 km/h
Température: 16°C
Point de Rosée: 0°C
Humidité: 34%
Baromètre: 1004 hPa
Nuages: partiellement nuageux
Visibilité: 10 km
2014/04/19 11:30 LFMV 191130Z AUTO 36020KT 320V020 9999 NSC 16/00 Q1004
 
LFBC - Cazaux/, France
Distance de la station: SO 336km
Mise à jour: 19/04/2014 13:30
partiellement nuageux
partiellement nuageux
 Wind from N
Vent: N 11 km/h
Température: 17°C
Point de Rosée: 3°C
Humidité: 39%
Baromètre: 1009 hPa
Nuages: partiellement nuageux
Visibilité: 10 km
2014/04/19 11:30 LFBC 191130Z AUTO 35006KT 310V040 9999 NSC 17/03 Q1009
LFPC - Creil/, France
Distance de la station: NNE 278km
Mise à jour: 19/04/2014 13:30
nuageux
nuageux
 Wind from NE
Vent: NE 17 km/h
Température: 13°C
Point de Rosée: 2°C
Humidité: 47%
Baromètre: 1014 hPa
Nuages: nuageux
Visibilité: 10 km
Nuages details: Quelques Nuages 1189 m
partiellement nuageux 1494 m
nuageux 2316 m
2014/04/19 11:30 LFPC 191130Z AUTO 05009KT 350V090 9999 FEW039 SCT049 BKN076 13/02 Q1014
 
LFLB - Chambery/, France
Distance de la station: ESE 348km
Mise à jour: 19/04/2014 13:37
nuageux
nuageux
 Wind from N
Vent: N 22 km/h
Température: 11°C
Point de Rosée: 2°C
Humidité: 54%
Baromètre: 1007 hPa
Nuages: nuageux
Visibilité: 10 km
Nuages details: partiellement nuageux 1311 m
nuageux 1615 m
nuageux 4572 m
2014/04/19 11:37 LFLB 191137Z 35012KT 9999 SCT043 BKN053 BKN150 11/02 Q1007 NOSIG
LFOK - Chalons/, France
Distance de la station: NE 287km
Mise à jour: 19/04/2014 13:30
nuageux
nuageux
 Wind from ENE
Vent: ENE 26 km/h
Température: 12°C
Point de Rosée: 2°C
Humidité: 51%
Baromètre: 1013 hPa
Nuages: nuageux
Visibilité: 10 km
Nuages details: Quelques Nuages 1311 m
partiellement nuageux 2256 m
nuageux 5486 m
2014/04/19 11:30 LFOK 191130Z AUTO 07014KT 9999 FEW043 SCT074 BKN180 12/02 Q1013
 
LFOC - Chateaudun/, France
Distance de la station: N 137km
Mise à jour: 19/04/2014 13:30
nuageux
nuageux
 Wind from NE
Vent: NE 19 km/h
Température: 11°C
Point de Rosée: 2°C
Humidité: 54%
Baromètre: 1012 hPa
Nuages: nuageux
Visibilité: 10 km
Nuages details: Quelques Nuages 1006 m
nuageux 2316 m
2014/04/19 11:30 LFOC 191130Z AUTO 04010KT 010V080 9999 FEW033 BKN076 11/02 Q1012
LFLX - Chateauroux/, France
Distance de la station: NE 4km
Mise à jour: 19/04/2014 13:30
clair
clair
 Wind from E
Vent: E 19 km/h
Température: 12°C
Point de Rosée: -1°C
Humidité: 41%
Baromètre: 1011 hPa
Récapitulatifs: clair
Visibilité: supérieure à 10 km
2014/04/19 11:30 LFLX 191130Z 09010KT CAVOK 12/M01 Q1011 NOSIG
 
LFPG - Charles De Gaulle/, France
Distance de la station: NNE 252km
Mise à jour: 19/04/2014 13:30
nuageux
nuageux
 Wind from ENE
Vent: ENE 24 km/h
Température: 12°C
Point de Rosée: 3°C
Humidité: 54%
Baromètre: 1014 hPa
Nuages: nuageux
Visibilité: 10 km
Nuages details: nuageux 975 m
2014/04/19 11:30 LFPG 191130Z 06013KT 030V090 9999 BKN032 12/03 Q1014 NOSIG
LFRC - Cherbourg/, France
Distance de la station: NO 390km
Mise à jour: 19/04/2014 13:30
Couvert
Couvert
 Wind from NE
Vent: NE 20 km/h
Température: 9°C
Wind Chill: 6°C
Point de Rosée: 6°C
Humidité: 82%
Baromètre: 1016 hPa
Nuages: Couvert
Visibilité: 10 km
Nuages details: nuageux 579 m
Couvert 945 m
2014/04/19 11:30 LFRC 191130Z AUTO 05011KT 010V090 9999 BKN019 OVC031 09/06 Q1016
 
LFLC - Clermont/, France
Distance de la station: SE 163km
Mise à jour: 19/04/2014 13:30
partiellement nuageux
partiellement nuageux
 Wind from NNE
Vent: NNE 15 km/h
Température: 12°C
Point de Rosée: -1°C
Humidité: 41%
Baromètre: 1009 hPa
Nuages: partiellement nuageux
Visibilité: 10 km
Nuages details: partiellement nuageux 1585 m
2014/04/19 11:30 LFLC 191130Z 02008KT 340V090 9999 SCT052 12/M01 Q1009 NOSIG
LFBG - Cognac/, France
Distance de la station: SO 200km
Mise à jour: 19/04/2014 13:30
partiellement nuageux
partiellement nuageux
 Wind from N
Vent: N 15 km/h
Température: 14°C
Point de Rosée: 0°C
Humidité: 39%
Baromètre: 1011 hPa
Nuages: partiellement nuageux
Visibilité: 10 km
2014/04/19 11:30 LFBG 191130Z AUTO 01008KT 350V050 9999 NSC 14/00 Q1011
 
LFBY - Dax/, France
Distance de la station: SSO 411km
Mise à jour: 19/04/2014 13:00

 Wind from variable
Vent: variable 6 km/h
Température: 17°C
Point de Rosée: 10°C
Humidité: 64%
Baromètre: 1009 hPa
2014/04/19 11:00 LFBY 191100Z AUTO VRB03KT //// // ////// 17/10 Q1009
LFSD - Dijon/, France
Distance de la station: ENE 261km
Mise à jour: 19/04/2014 13:30
Couvert
Couvert
 Wind from NNE
Vent: NNE 30 km/h
Température: 11°C
Point de Rosée: 1°C
Humidité: 50%
Baromètre: 1010 hPa
Nuages: Couvert
Visibilité: 10 km
Nuages details: nuageux 1280 m
nuageux 2316 m
Couvert 2804 m
2014/04/19 11:30 LFSD 191130Z AUTO 03016KT 9999 BKN042 BKN076 OVC092 11/01 Q1010
 
LFRD - Dinard/, France
Distance de la station: NO 342km
Mise à jour: 19/04/2014 13:30
nuageux
nuageux
 Wind from NE
Vent: NE 19 km/h
Température: 12°C
Point de Rosée: 3°C
Humidité: 54%
Baromètre: 1014 hPa
Nuages: nuageux
Visibilité: 10 km
Nuages details: Quelques Nuages 1158 m
nuageux 1768 m
2014/04/19 11:30 LFRD 191130Z AUTO 04010KT 9999 FEW038 BKN058 12/03 Q1014
LFGJ - Dole/, France
Distance de la station: E 286km
Mise à jour: 19/04/2014 13:30
Couvert
Couvert
 Wind from NE
Vent: NE 24 km/h
Température: 10°C
Wind Chill: 7°C
Point de Rosée: 3°C
Humidité: 62%
Baromètre: 1009 hPa
Nuages: Couvert
Visibilité: 10 km
Nuages details: nuageux 1036 m
Couvert 2134 m
2014/04/19 11:30 LFGJ 191130Z AUTO 05013KT 010V080 9999 BKN034 OVC070 10/03 Q1009
 
LFOE - Evreux/, France
Distance de la station: N 247km
Mise à jour: 19/04/2014 13:30
nuageux
nuageux
 Wind from NE
Vent: NE 19 km/h
Température: 10°C
Wind Chill: 7°C
Point de Rosée: 2°C
Humidité: 58%
Baromètre: 1014 hPa
Nuages: nuageux
Visibilité: 10 km
Nuages details: Quelques Nuages 1128 m
partiellement nuageux 1433 m
nuageux 1951 m
2014/04/19 11:30 LFOE 191130Z AUTO 05010KT 010V090 9999 FEW037 SCT047 BKN064 10/02 Q1014
LFMT - Frejorgues/, France
Distance de la station: SSE 403km
Mise à jour: 19/04/2014 13:30
clair
clair
 Wind from NNE
Vent: NNE 17 km/h
Température: 18°C
Point de Rosée: -6°C
Humidité: 19%
Baromètre: 1005 hPa
Récapitulatifs: clair
Visibilité: supérieure à 10 km
2014/04/19 11:30 LFMT 191130Z 02009KT 320V090 CAVOK 18/M06 Q1005 NOSIG
 
LFMI - Istres/, France
Distance de la station: SE 446km
Mise à jour: 19/04/2014 13:30
partiellement nuageux
partiellement nuageux
 Wind from NNO
Vent: NNO 50 km/h
Température: 16°C
Point de Rosée: -3°C
Humidité: 27%
Baromètre: 1004 hPa
Nuages: partiellement nuageux
Visibilité: 10 km
2014/04/19 11:30 LFMI 191130Z AUTO 34027KT 9999 NSC 16/M03 Q1004
LFLS - Grenoble/, France
Distance de la station: ESE 323km
Mise à jour: 19/04/2014 13:30
Couvert
Couvert
 Wind from NNE
Vent: NNE 13 km/h
Température: 10°C
Wind Chill: 8°C
Point de Rosée: 1°C
Humidité: 54%
Baromètre: 1007 hPa
Nuages: Couvert
Visibilité: 10 km
Nuages details: Quelques Nuages 1158 m
Couvert 1646 m
2014/04/19 11:30 LFLS 191130Z AUTO 03007KT 340V070 9999 FEW038 OVC054 10/01 Q1007
 
LFBH - La Rochelle/, France
Distance de la station: OSO 229km
Mise à jour: 19/04/2014 13:30
partiellement nuageux
partiellement nuageux
 Wind from ENE
Vent: ENE 11 km/h
Température: 12°C
Point de Rosée: 2°C
Humidité: 51%
Baromètre: 1011 hPa
Nuages: partiellement nuageux
Visibilité: 10 km
2014/04/19 11:30 LFBH 191130Z AUTO 07006KT 020V100 9999 NSC 12/02 Q1011
LFRI - La Roche Sur Yon/, France
Distance de la station: O 233km
Mise à jour: 19/04/2014 13:30
nuageux
nuageux
 Wind from NE
Vent: NE 17 km/h
Température: 12°C
Point de Rosée: 2°C
Humidité: 51%
Baromètre: 1012 hPa
Nuages: nuageux
Visibilité: 10 km
Nuages details: nuageux 1402 m
2014/04/19 11:30 LFRI 191130Z AUTO 04009KT 9999 BKN046 12/02 Q1012
 
LFOH - Le Havre/, France
Distance de la station: NNO 323km
Mise à jour: 19/04/2014 13:30
Couvert
Couvert
 Wind from ENE
Vent: ENE 22 km/h
Température: 10°C
Wind Chill: 7°C
Point de Rosée: 1°C
Humidité: 54%
Baromètre: 1015 hPa
Nuages: Couvert
Visibilité: 10 km
Nuages details: Quelques Nuages 1036 m
Couvert 1768 m
2014/04/19 11:30 LFOH 191130Z AUTO 06012KT 9999 FEW034 OVC058 10/01 Q1015
LFRM - Le Mans/, France
Distance de la station: NO 166km
Mise à jour: 19/04/2014 13:30
partiellement nuageux
partiellement nuageux
 Wind from ENE
Vent: ENE 17 km/h
Température: 12°C
Point de Rosée: 2°C
Humidité: 51%
Baromètre: 1013 hPa
Nuages: partiellement nuageux
Visibilité: 10 km
2014/04/19 11:30 LFRM 191130Z AUTO 06009KT 010V100 9999 NSC 12/02 Q1013
 
LFRJ - Landivisiau/, France
Distance de la station: ONO 476km
Mise à jour: 19/04/2014 13:30
nuageux
nuageux
 Wind from ESE
Vent: ESE 22 km/h
Température: 12°C
Point de Rosée: 1°C
Humidité: 47%
Baromètre: 1014 hPa
Nuages: nuageux
Visibilité: 10 km
Nuages details: nuageux 1341 m
nuageux 3962 m
2014/04/19 11:30 LFRJ 191130Z AUTO 11012KT 9999 BKN044 BKN130 12/01 Q1014
LFRO - Lannion/, France
Distance de la station: ONO 441km
Mise à jour: 19/04/2014 13:30
nuageux
nuageux
 Wind from variable
Vent: variable 17 km/h
Température: 11°C
Point de Rosée: 2°C
Humidité: 54%
Baromètre: 1014 hPa
Nuages: nuageux
Visibilité: 10 km
Nuages details: Quelques Nuages 1097 m
nuageux 1372 m
nuageux 1585 m
2014/04/19 11:30 LFRO 191130Z AUTO VRB09KT 9999 FEW036 BKN045 BKN052 11/02 Q1014
 
LFRL - Lanveoc/, France
Distance de la station: ONO 485km
Mise à jour: 19/04/2014 13:30
partiellement nuageux
partiellement nuageux
 Wind from ENE
Vent: ENE 17 km/h
Température: 11°C
Point de Rosée: 1°C
Humidité: 50%
Baromètre: 1014 hPa
Nuages: partiellement nuageux
Visibilité: 10 km
2014/04/19 11:30 LFRL 191130Z AUTO 06009KT 030V090 9999 NSC 11/01 Q1014
LFBL - Limoges/, France
Distance de la station: SSO 113km
Mise à jour: 19/04/2014 13:30
partiellement nuageux
partiellement nuageux
 Wind from NE
Vent: NE 15 km/h
Température: 11°C
Point de Rosée: -3°C
Humidité: 38%
Baromètre: 1009 hPa
Nuages: partiellement nuageux
Visibilité: 10 km
2014/04/19 11:30 LFBL 191130Z AUTO 05008KT 010V100 9999 NSC 11/M03 Q1009
 
LFQQ - Lille/, France
Distance de la station: NNE 430km
Mise à jour: 19/04/2014 13:30
partiellement nuageux
partiellement nuageux
 Wind from ENE
Vent: ENE 20 km/h
Température: 13°C
Point de Rosée: 1°C
Humidité: 44%
Baromètre: 1016 hPa
Nuages: partiellement nuageux
Visibilité: 10 km
Nuages details: partiellement nuageux 1219 m
2014/04/19 11:30 LFQQ 191130Z 07011KT 050V110 9999 SCT040 13/01 Q1016 NOSIG
LFRH - Lorient/, France
Distance de la station: ONO 401km
Mise à jour: 19/04/2014 13:30
partiellement nuageux
partiellement nuageux
 Wind from NE
Vent: NE 17 km/h
Température: 12°C
Point de Rosée: 1°C
Humidité: 47%
Baromètre: 1013 hPa
Nuages: partiellement nuageux
Visibilité: 10 km
2014/04/19 11:30 LFRH 191130Z AUTO 05009KT 020V080 9999 NSC 12/01 Q1013
 
LFLY - Lyon/, France
Distance de la station: ESE 279km
Mise à jour: 19/04/2014 13:30
Couvert
Couvert
 Wind from N
Vent: N 22 km/h
Température: 12°C
Point de Rosée: 0°C
Humidité: 44%
Baromètre: 1008 hPa
Nuages: Couvert
Visibilité: 10 km
Nuages details: nuageux 1433 m
nuageux 1707 m
Couvert 2012 m
2014/04/19 11:30 LFLY 191130Z AUTO 35012KT 320V030 9999 BKN047 BKN056 OVC066 12/M00 Q1008
LFLL - Lyon/Satolas, France
Distance de la station: ESE 287km
Mise à jour: 19/04/2014 13:30
partiellement nuageux
partiellement nuageux
 Wind from N
Vent: N 24 km/h
Température: 11°C
Point de Rosée: 0°C
Humidité: 47%
Baromètre: 1007 hPa
Nuages: partiellement nuageux
Visibilité: 10 km
Nuages details: partiellement nuageux 1219 m
partiellement nuageux 1524 m
2014/04/19 11:30 LFLL 191130Z 36013KT 330V030 9999 SCT040 SCT050 11/00 Q1007 NOSIG
 
LFSX - Luxeuil/, France
Distance de la station: ENE 366km
Mise à jour: 19/04/2014 13:30
Couvert
Couvert
 Wind from NNE
Vent: NNE 20 km/h
Température: 9°C
Wind Chill: 6°C
Point de Rosée: 1°C
Humidité: 58%
Baromètre: 1010 hPa
Nuages: Couvert
Visibilité: 10 km
Nuages details: nuageux 1158 m
Couvert 1341 m
2014/04/19 11:30 LFSX 191130Z AUTO 02011KT 340V050 9999 BKN038 OVC044 09/01 Q1010
LFJR - Marce/, France
Distance de la station: NO 134km
Mise à jour: 19/04/2014 13:30
nuageux
nuageux
 Wind from NNE
Vent: NNE 15 km/h
Température: 13°C
Point de Rosée: 3°C
Humidité: 51%
Baromètre: 1013 hPa
Nuages: nuageux
Visibilité: 10 km
Nuages details: Quelques Nuages 1189 m
nuageux 2073 m
2014/04/19 11:30 LFJR 191130Z AUTO 03008KT 360V100 9999 FEW039 BKN068 13/03 Q1013
 
LFML - Marseille/, France
Distance de la station: SE 466km
Mise à jour: 19/04/2014 13:30
clair
clair
 Wind from NNO
Vent: NNO 41 km/h
Température: 16°C
Point de Rosée: 0°C
Humidité: 34%
Baromètre: 1004 hPa
Récapitulatifs: clair
Visibilité: supérieure à 10 km
2014/04/19 11:30 LFML 191130Z 33022KT CAVOK 16/M00 Q1004 NOSIG
LFPM - Melun/, France
Distance de la station: NNE 213km
Mise à jour: 19/04/2014 13:30
Quelques Nuages
Quelques Nuages
 Wind from NE
Vent: NE 17 km/h
Température: 13°C
Point de Rosée: 3°C
Humidité: 51%
Baromètre: 1013 hPa
Nuages: Quelques Nuages
Visibilité: 10 km
Nuages details: Quelques Nuages 1097 m
2014/04/19 11:30 LFPM 191130Z AUTO 05009KT 350V090 9999 FEW036 13/03 Q1013
 
LFJL - Metz-Nancy-Lorra/, France
Distance de la station: NE 416km
Mise à jour: 19/04/2014 13:30
Couvert
Couvert
 Wind from NE
Vent: NE 26 km/h
Température: 10°C
Wind Chill: 7°C
Point de Rosée: 2°C
Humidité: 58%
Baromètre: 1012 hPa
Nuages: Couvert
Visibilité: 10 km
Nuages details: Quelques Nuages 1097 m
Couvert 1768 m
2014/04/19 11:30 LFJL 191130Z AUTO 04014KT 360V060 9999 FEW036 OVC058 10/02 Q1012
LFBM - Mont-De-Marsan/, France
Distance de la station: SSO 365km
Mise à jour: 19/04/2014 13:30
partiellement nuageux
partiellement nuageux
 Wind from variable
Vent: variable 4 km/h
Température: 18°C
Point de Rosée: 4°C
Humidité: 40%
Baromètre: 1009 hPa
Nuages: partiellement nuageux
Visibilité: 10 km
2014/04/19 11:30 LFBM 191130Z AUTO VRB02KT 9999 NSC 18/04 Q1009
 
LFSO - Nancy/, France
Distance de la station: ENE 375km
Mise à jour: 19/04/2014 13:30
Couvert
Couvert
 Wind from NNE
Vent: NNE 26 km/h
Température: 8°C
Wind Chill: 4°C
Point de Rosée: 2°C
Humidité: 66%
Baromètre: 1011 hPa
Nuages: Couvert
Visibilité: 6 km
Nuages details: Quelques Nuages 1036 m
nuageux 1280 m
Couvert 1524 m
2014/04/19 11:30 LFSO 191130Z AUTO 02014KT 010V070 6000 FEW034 BKN042 OVC050 08/02 Q1011
LFRS - Nantes/, France
Distance de la station: O 252km
Mise à jour: 19/04/2014 13:30
partiellement nuageux
partiellement nuageux
 Wind from NE
Vent: NE 17 km/h
Température: 11°C
Point de Rosée: 2°C
Humidité: 54%
Baromètre: 1012 hPa
Nuages: partiellement nuageux
Visibilité: 10 km
Nuages details: partiellement nuageux 1311 m
2014/04/19 11:30 LFRS 191130Z 04009KT 010V070 9999 SCT043 11/02 Q1012 NOSIG
 
LFTW - Nimes/, France
Distance de la station: SE 402km
Mise à jour: 19/04/2014 13:30
partiellement nuageux
partiellement nuageux
 Wind from NNO
Vent: NNO 30 km/h
Température: 18°C
Point de Rosée: -4°C
Humidité: 22%
Baromètre: 1005 hPa
Nuages: partiellement nuageux
Visibilité: 10 km
2014/04/19 11:30 LFTW 191130Z AUTO 34016KT 310V010 9999 NSC 18/M04 Q1005
LFMO - Orange/, France
Distance de la station: SE 387km
Mise à jour: 19/04/2014 13:30
partiellement nuageux
partiellement nuageux
 Wind from N
Vent: N 52 km/h, Rafale: 74 km/h
Température: 15°C
Point de Rosée: -1°C
Humidité: 34%
Baromètre: 1005 hPa
Nuages: partiellement nuageux
Visibilité: 10 km
2014/04/19 11:30 LFMO 191130Z AUTO 35028G40KT 9999 NSC 15/M01 Q1005
 
LFOJ - Orleans/, France
Distance de la station: N 128km
Mise à jour: 19/04/2014 13:30
nuageux
nuageux
 Wind from NNE
Vent: NNE 22 km/h
Température: 11°C
Point de Rosée: 1°C
Humidité: 50%
Baromètre: 1012 hPa
Nuages: nuageux
Visibilité: 10 km
Nuages details: Quelques Nuages 1158 m
nuageux 2073 m
nuageux 2438 m
2014/04/19 11:30 LFOJ 191130Z AUTO 03012KT 9999 FEW038 BKN068 BKN080 11/01 Q1012
LFPB - Paris/, France
Distance de la station: NNE 246km
Mise à jour: 19/04/2014 13:30
nuageux
nuageux
 Wind from NE
Vent: NE 20 km/h
Température: 12°C
Point de Rosée: 3°C
Humidité: 54%
Baromètre: 1014 hPa
Nuages: nuageux
Visibilité: 10 km
Nuages details: partiellement nuageux 1280 m
partiellement nuageux 1494 m
nuageux 2073 m
2014/04/19 11:30 LFPB 191130Z AUTO 05011KT 010V080 9999 SCT042 SCT049 BKN068 12/03 Q1014
 
LFPO - Paris/Orly/, France
Distance de la station: NNE 218km
Mise à jour: 19/04/2014 13:30
nuageux
nuageux
 Wind from E
Vent: E 19 km/h
Température: 12°C
Point de Rosée: 1°C
Humidité: 47%
Baromètre: 1013 hPa
Nuages: nuageux
Visibilité: 10 km
Nuages details: nuageux 1311 m
2014/04/19 11:30 LFPO 191130Z 08010KT 060V120 9999 BKN043 12/01 Q1013 NOSIG
LFMP - Perpignan/, France
Distance de la station: SSE 465km
Mise à jour: 19/04/2014 13:30
partiellement nuageux
partiellement nuageux
 Wind from NNO
Vent: NNO 31 km/h, Rafale: 54 km/h
Température: 18°C
Point de Rosée: 6°C
Humidité: 46%
Baromètre: 1006 hPa
Nuages: partiellement nuageux
Visibilité: 10 km
Nuages details: partiellement nuageux 1219 m
2014/04/19 11:30 LFMP 191130Z 33017G29KT 290V070 9999 SCT040 18/06 Q1006 NOSIG
 
LFBI - Poitiers/, France
Distance de la station: OSO 108km
Mise à jour: 19/04/2014 13:30
nuageux
nuageux
 Wind from NE
Vent: NE 13 km/h
Température: 13°C
Point de Rosée: 4°C
Humidité: 55%
Baromètre: 1011 hPa
Nuages: nuageux
Visibilité: 10 km
Nuages details: Quelques Nuages 1219 m
nuageux 1951 m
2014/04/19 11:30 LFBI 191130Z AUTO 04007KT 360V120 9999 FEW040 BKN064 13/04 Q1011
LFRQ - Quimper/, France
Distance de la station: ONO 458km
Mise à jour: 19/04/2014 13:30
nuageux
nuageux
 Wind from ENE
Vent: ENE 19 km/h
Température: 12°C
Point de Rosée: 1°C
Humidité: 47%
Baromètre: 1013 hPa
Nuages: nuageux
Visibilité: 10 km
Nuages details: nuageux 1402 m
nuageux 1585 m
2014/04/19 11:30 LFRQ 191130Z AUTO 07010KT 040V120 9999 BKN046 BKN052 12/01 Q1013
 
LFRN - Rennes/, France
Distance de la station: ONO 291km
Mise à jour: 19/04/2014 13:30
Couvert
Couvert
 Wind from E
Vent: E 19 km/h
Température: 11°C
Point de Rosée: 2°C
Humidité: 54%
Baromètre: 1013 hPa
Nuages: Couvert
Visibilité: 10 km
Nuages details: Couvert 1494 m
2014/04/19 11:30 LFRN 191130Z AUTO 08010KT 050V110 9999 OVC049 11/02 Q1013
LFCR - Rodez/, France
Distance de la station: SSE 277km
Mise à jour: 19/04/2014 13:30
partiellement nuageux
partiellement nuageux
 Wind from NNO
Vent: NNO 17 km/h
Température: 11°C
Point de Rosée: -3°C
Humidité: 38%
Baromètre: 1008 hPa
Nuages: partiellement nuageux
Visibilité: 10 km
2014/04/19 11:30 LFCR 191130Z AUTO 33009KT 260V010 9999 NSC 11/M03 Q1008
 
LFYR - Romorantin/, France
Distance de la station: N 56km
Mise à jour: 19/04/2014 13:30
partiellement nuageux
partiellement nuageux
 Wind from NE
Vent: NE 17 km/h
Température: 14°C
Point de Rosée: -2°C
Humidité: 33%
Baromètre: 1011 hPa
Nuages: partiellement nuageux
Visibilité: 10 km
2014/04/19 11:30 LFYR 191130Z AUTO 05009KT 010V090 9999 NSC 14/M02 Q1011
LFOP - Rouen/, France
Distance de la station: N 286km
Mise à jour: 19/04/2014 13:30
nuageux
nuageux
 Wind from ENE
Vent: ENE 19 km/h
Température: 11°C
Point de Rosée: 1°C
Humidité: 50%
Baromètre: 1015 hPa
Nuages: nuageux
Visibilité: 10 km
Nuages details: Quelques Nuages 1250 m
nuageux 1707 m
2014/04/19 11:30 LFOP 191130Z AUTO 06010KT 030V090 9999 FEW041 BKN056 11/01 Q1015
 
LFMY - Salon/, France
Distance de la station: SE 446km
Mise à jour: 19/04/2014 13:30
partiellement nuageux
partiellement nuageux
 Wind from NNO
Vent: NNO 41 km/h
Température: 17°C
Point de Rosée: 0°C
Humidité: 32%
Baromètre: 1004 hPa
Nuages: partiellement nuageux
Visibilité: 10 km
2014/04/19 11:30 LFMY 191130Z AUTO 34022KT 9999 NSC 17/00 Q1004
LFST - Strasbourg/, France
Distance de la station: ENE 483km
Mise à jour: 19/04/2014 13:30
Couvert
Couvert
 Wind from NE
Vent: NE 28 km/h
Température: 10°C
Wind Chill: 7°C
Point de Rosée: 3°C
Humidité: 62%
Baromètre: 1011 hPa
Nuages: Couvert
Visibilité: 10 km
Nuages details: Couvert 1189 m
2014/04/19 11:30 LFST 191130Z AUTO 04015KT 9999 OVC039 10/03 Q1011
 
LFRT - Saint-Brieuc/, France
Distance de la station: ONO 388km
Mise à jour: 19/04/2014 13:30
Quelques Nuages
Quelques Nuages
 Wind from NE
Vent: NE 26 km/h
Température: 10°C
Wind Chill: 7°C
Point de Rosée: 4°C
Humidité: 67%
Baromètre: 1014 hPa
Nuages: Quelques Nuages
Visibilité: 10 km
Nuages details: Quelques Nuages 853 m
2014/04/19 11:30 LFRT 191130Z AUTO 05014KT 9999 FEW028 10/04 Q1014
LFSI - St. Dizier/, France
Distance de la station: NE 313km
Mise à jour: 19/04/2014 13:30
Couvert
Couvert
 Wind from NE
Vent: NE 22 km/h
Température: 11°C
Point de Rosée: 1°C
Humidité: 50%
Baromètre: 1012 hPa
Nuages: Couvert
Visibilité: 10 km
Nuages details: Quelques Nuages 1311 m
Couvert 2256 m
2014/04/19 11:30 LFSI 191130Z AUTO 05012KT 9999 FEW043/// OVC074/// 11/01 Q1012
 
LFMH - St Etienne/, France
Distance de la station: SE 247km
Mise à jour: 19/04/2014 13:30
nuageux
nuageux
 Wind from N
Vent: N 19 km/h
Température: 11°C
Point de Rosée: -2°C
Humidité: 41%
Baromètre: 1008 hPa
Nuages: nuageux
Visibilité: 10 km
Nuages details: nuageux 1311 m
2014/04/19 11:30 LFMH 191130Z 35010KT 300V030 9999 BKN043 11/M02 Q1008 NOSIG
LFRG - St Gatien/, France
Distance de la station: NNO 305km
Mise à jour: 19/04/2014 13:30
Couvert
Couvert
 Wind from variable
Vent: variable 13 km/h
Température: 10°C
Wind Chill: 8°C
Point de Rosée: 2°C
Humidité: 58%
Baromètre: 1015 hPa
Nuages: Couvert
Visibilité: 10 km
Nuages details: nuageux 1189 m
Couvert 1768 m
2014/04/19 11:30 LFRG 191130Z AUTO VRB07KT 9999 BKN039 OVC058 10/02 Q1015
 
LFRZ - St. Nazaire/, France
Distance de la station: ONO 297km
Mise à jour: 19/04/2014 13:30
nuageux
nuageux
 Wind from E
Vent: E 19 km/h
Température: 13°C
Point de Rosée: 5°C
Humidité: 59%
Baromètre: 1012 hPa
Nuages: nuageux
Visibilité: 10 km
Nuages details: nuageux 1494 m
2014/04/19 11:30 LFRZ 191130Z AUTO 08010KT 9999 BKN049 13/05 Q1012
LFLN - Saint Yan/, France
Distance de la station: ESE 184km
Mise à jour: 19/04/2014 13:30
partiellement nuageux
partiellement nuageux
 Wind from NE
Vent: NE 22 km/h
Température: 13°C
Point de Rosée: 0°C
Humidité: 41%
Baromètre: 1009 hPa
Nuages: partiellement nuageux
Visibilité: 7 km
2014/04/19 11:30 LFLN 191130Z AUTO 05012KT 020V080 7000 NSC 13/00 Q1009
 
LFBT - Tarbes/, France
Distance de la station: SSO 427km
Mise à jour: 19/04/2014 13:30
nuageux
nuageux
 Wind from NO
Vent: NO 15 km/h
Température: 15°C
Point de Rosée: 8°C
Humidité: 63%
Baromètre: 1009 hPa
Nuages: nuageux
Visibilité: 10 km
Nuages details: partiellement nuageux 823 m
partiellement nuageux 975 m
nuageux 1707 m
2014/04/19 11:30 LFBT 191130Z AUTO 31008KT 250V340 9999 SCT027 SCT032 BKN056 15/08 Q1009
LFSL - Toul/, France
Distance de la station: NE 356km
Mise à jour: 19/04/2014 13:30
partiellement nuageux
partiellement nuageux
 Wind from NE
Vent: NE 15 km/h
Température: 14°C
Point de Rosée: -4°C
Humidité: 29%
Baromètre: 1009 hPa
Nuages: partiellement nuageux
Visibilité: 10 km
2014/04/19 11:30 LFSL 191130Z AUTO 04008KT 330V090 9999 NSC 14/M04 Q1009
 
LFBO - Toulouse/, France
Distance de la station: S 357km
Mise à jour: 19/04/2014 13:30
partiellement nuageux
partiellement nuageux
 Wind from NO
Vent: NO 13 km/h
Température: 15°C
Point de Rosée: 4°C
Humidité: 48%
Baromètre: 1008 hPa
Nuages: partiellement nuageux
Visibilité: 10 km
2014/04/19 11:30 LFBO 191130Z AUTO 31007KT 260V010 9999 NSC 15/04 Q1008
LFOT - Tours/, France
Distance de la station: NO 100km
Mise à jour: 19/04/2014 13:30
nuageux
nuageux
 Wind from NE
Vent: NE 15 km/h
Température: 12°C
Point de Rosée: 3°C
Humidité: 54%
Baromètre: 1012 hPa
Nuages: nuageux
Visibilité: 10 km
Nuages details: nuageux 1189 m
nuageux 1494 m
nuageux 2377 m
2014/04/19 11:30 LFOT 191130Z AUTO 05008KT 340V090 9999 BKN039 BKN049 BKN078 12/03 Q1012
 
LFPN - Toussus Le Noble/, France
Distance de la station: N 217km
Mise à jour: 19/04/2014 13:30
nuageux
nuageux
 Wind from NNE
Vent: NNE 15 km/h
Température: 11°C
Point de Rosée: 3°C
Humidité: 58%
Baromètre: 1013 hPa
Nuages: nuageux
Visibilité: 10 km
Nuages details: partiellement nuageux 1219 m
nuageux 1402 m
nuageux 1707 m
2014/04/19 11:30 LFPN 191130Z AUTO 02008KT 340V060 9999 SCT040 BKN046 BKN056 11/03 Q1013
LFPV - Villacoublay/, France
Distance de la station: N 220km
Mise à jour: 19/04/2014 13:30
nuageux
nuageux
 Wind from NE
Vent: NE 15 km/h
Température: 12°C
Point de Rosée: 1°C
Humidité: 47%
Baromètre: 1013 hPa
Nuages: nuageux
Visibilité: 10 km
Nuages details: nuageux 1250 m
nuageux 1829 m
nuageux 2195 m
2014/04/19 11:30 LFPV 191130Z AUTO 04008KT 360V080 9999 BKN041 BKN060 BKN072 12/01 Q1013